Terminal Aerodrome Forecast
Issued by NWS

Current Version | Previous Version | Graphics & Text | Print | Product List | Glossary On
Versions: 1 2 3 4 5 6 7 8 9 10 11 12 13 14 15 16 17 18 19 20 21 22
609
FTUS41 KRLX 250529
TAFCKB
TAF
KCKB 250529Z 2506/2606 15004KT 5SM -SHRA BR OVC027
      TEMPO 2506/2508 2SM -SHRA BR BKN018
     FM251000 18005KT P6SM SHRA OVC013
     FM251700 22009KT P6SM SHRA BKN035=

USA.gov is the U.S. government's official web portal to all federal, state and local government web resources and services.